Minna Airport

Airport
ICAO code: 
DNMN
IATA Code: 
MXJ
Summary
ICAO Region: 
AFI
Territory: 
Location: 
Maikonkole, Niger State
Serving: 
Minna
Elevation: 
834 ft
Coordinates: 
Aerial View: 
9° 39' 5.004" N, 6° 27' 39.996" E
Metar
Observation
DNMN 290500Z 04006KT CAVOK 23/08 Q1010
Station
Minna Airport
Date/Time
2021-11-29 05:00:00
Wind direction
40°
Wind speed
06 kts
Lowest cloud amount
clouds and visibility OK
Temperature
23°C
Dew point
8°C
Humidity
38%
QNH
1010 hPa
Weather condition
n/a

Minna Airport is an airport 6.2 nm northwest of Minna, the capital of Niger State in Nigeria.

Climatology

Tropical savanna climate (Köppen climate classification Aw)

Runways

Designator Length Width Surface Rops
5/23 3399 44 ASP No/No
Airport map: 
Aerial View: 

SKYbrary Partners:

Safety knowledge contributed by: